Time;durP1;ratioP1;P1;durP2;ratioP2;P2;SDS_P1;SDS_P2;PMS_P1;PMS_P2;Temp;Humidity;BMP_temperature;BMP_pressure;BME280_temperature;BME280_humidity;BME280_pressure;Samples;Min_cycle;Max_cycle;Signal;HPM_P1;HPM_P2
2024/03/24 00:02:19;;;;;;;10.63;2.85;;;3.30;100.00;;;;;;4951695;28;20051;-84
2024/03/24 00:04:45;;;;;;;9.90;2.83;;;3.30;100.00;;;;;;4951611;29;20775;-84
2024/03/24 00:07:11;;;;;;;17.85;2.28;;;3.20;100.00;;;;;;4951612;28;20047;-84
2024/03/24 00:09:37;;;;;;;9.15;1.80;;;3.20;100.00;;;;;;4936073;29;20059;-83
2024/03/24 00:12:03;;;;;;;10.30;2.33;;;3.20;100.00;;;;;;4952381;28;20144;-84
2024/03/24 00:14:29;;;;;;;7.97;2.35;;;3.20;100.00;;;;;;4955143;28;20055;-83
2024/03/24 00:16:55;;;;;;;11.80;3.10;;;3.10;100.00;;;;;;4933291;29;20555;-84
2024/03/24 00:19:20;;;;;;;8.98;2.58;;;3.10;100.00;;;;;;4932855;29;20496;-83
2024/03/24 00:21:46;;;;;;;8.40;2.03;;;3.10;100.00;;;;;;4933081;29;20504;-83
2024/03/24 00:24:12;;;;;;;18.38;3.30;;;3.10;100.00;;;;;;4949093;29;20137;-84
2024/03/24 00:26:38;;;;;;;5.38;1.80;;;3.10;100.00;;;;;;4951094;28;20059;-83
2024/03/24 00:29:04;;;;;;;7.82;2.45;;;3.10;100.00;;;;;;4935022;29;20056;-82
2024/03/24 00:31:29;;;;;;;7.07;2.20;;;3.10;100.00;;;;;;4936477;28;20589;-83
2024/03/24 00:33:55;;;;;;;8.60;2.30;;;3.00;100.00;;;;;;4933972;29;20051;-83
2024/03/24 00:36:21;;;;;;;11.27;2.33;;;3.00;100.00;;;;;;4931217;28;20109;-83
2024/03/24 00:38:48;;;;;;;12.95;2.30;;;3.00;100.00;;;;;;4950463;29;20059;-83
2024/03/24 00:41:14;;;;;;;10.57;2.58;;;3.00;100.00;;;;;;4934140;29;20468;-82
2024/03/24 00:43:40;;;;;;;9.05;2.25;;;3.00;100.00;;;;;;4934312;29;20097;-82
2024/03/24 00:46:05;;;;;;;5.75;2.45;;;2.90;100.00;;;;;;4950795;28;20425;-82
2024/03/24 00:48:31;;;;;;;8.93;2.47;;;2.90;100.00;;;;;;4934628;29;20062;-83
2024/03/24 00:50:57;;;;;;;8.65;2.55;;;2.90;100.00;;;;;;4934639;29;20130;-82
2024/03/24 00:53:23;;;;;;;4.60;1.90;;;2.90;100.00;;;;;;4933895;29;20063;-82
2024/03/24 00:55:49;;;;;;;5.20;2.30;;;2.90;100.00;;;;;;4934162;28;20043;-82
2024/03/24 00:58:15;;;;;;;9.50;2.50;;;2.90;100.00;;;;;;4954800;28;20134;-83
2024/03/24 01:00:41;;;;;;;11.10;2.58;;;2.90;100.00;;;;;;4950788;28;20062;-82
2024/03/24 01:03:07;;;;;;;7.88;3.25;;;2.90;100.00;;;;;;4927109;29;20055;-82
2024/03/24 01:05:33;;;;;;;8.85;2.80;;;2.90;100.00;;;;;;4950932;29;20089;-82
2024/03/24 01:07:59;;;;;;;10.55;2.85;;;2.90;100.00;;;;;;4950655;29;20063;-82
2024/03/24 01:10:25;;;;;;;11.30;2.35;;;2.90;100.00;;;;;;4949644;29;20504;-81
2024/03/24 01:12:51;;;;;;;12.40;2.60;;;2.90;100.00;;;;;;4949857;29;20763;-82
2024/03/24 01:15:17;;;;;;;10.27;2.88;;;2.90;100.00;;;;;;4935595;29;20066;-81
2024/03/24 01:17:44;;;;;;;7.20;2.25;;;2.90;100.00;;;;;;4930216;29;20058;-83
2024/03/24 01:20:11;;;;;;;11.90;2.67;;;2.90;100.00;;;;;;4944806;29;20054;-82
2024/03/24 01:22:41;;;;;;;9.57;2.90;;;2.90;100.00;;;;;;4946613;29;20063;-81
2024/03/24 01:25:07;;;;;;;10.80;2.60;;;2.80;100.00;;;;;;4949618;28;20055;-81
2024/03/24 01:27:34;;;;;;;12.40;3.00;;;2.80;100.00;;;;;;4934104;29;20055;-81
2024/03/24 01:30:00;;;;;;;20.95;3.30;;;2.80;100.00;;;;;;4933405;29;20059;-81
2024/03/24 01:32:25;;;;;;;13.02;3.35;;;2.80;100.00;;;;;;4950252;28;20996;-81
2024/03/24 01:34:52;;;;;;;12.32;3.55;;;2.80;100.00;;;;;;4955763;28;20055;-81
2024/03/24 01:37:18;;;;;;;13.27;3.58;;;2.80;100.00;;;;;;4950351;29;20843;-82
2024/03/24 01:39:46;;;;;;;10.45;3.45;;;2.80;100.00;;;;;;4949791;29;20055;-81
2024/03/24 01:42:12;;;;;;;15.32;4.43;;;2.80;100.00;;;;;;4950540;28;20460;-82
2024/03/24 01:44:38;;;;;;;11.98;3.30;;;2.70;100.00;;;;;;4949650;29;20055;-82
2024/03/24 01:47:05;;;;;;;15.30;3.45;;;2.70;100.00;;;;;;4950127;29;20105;-82
2024/03/24 01:49:31;;;;;;;14.70;3.58;;;2.70;100.00;;;;;;4934088;29;20464;-81
2024/03/24 01:51:57;;;;;;;14.75;3.30;;;2.70;100.00;;;;;;4949699;29;20099;-81
2024/03/24 01:54:25;;;;;;;9.98;2.90;;;2.70;100.00;;;;;;4953852;28;20072;-82
2024/03/24 01:56:51;;;;;;;8.82;2.78;;;2.60;100.00;;;;;;4953946;28;20059;-83
2024/03/24 01:59:17;;;;;;;9.48;4.10;;;2.60;100.00;;;;;;4934485;29;20055;-81
2024/03/24 02:01:43;;;;;;;14.60;4.53;;;2.60;100.00;;;;;;4948832;28;20114;-82
2024/03/24 02:04:09;;;;;;;11.18;3.55;;;2.60;100.00;;;;;;4949858;28;20055;-82
2024/03/24 02:06:36;;;;;;;7.88;3.88;;;2.60;100.00;;;;;;4934113;29;20059;-83
2024/03/24 02:09:02;;;;;;;21.75;4.15;;;2.60;100.00;;;;;;4950517;28;20559;-82
2024/03/24 02:11:29;;;;;;;12.40;4.28;;;2.60;100.00;;;;;;4937787;29;20055;-82
2024/03/24 02:13:59;;;;;;;9.40;3.05;;;2.60;100.00;;;;;;4949965;29;20071;-81
2024/03/24 02:16:25;;;;;;;10.25;2.80;;;2.60;100.00;;;;;;4953143;29;20054;-82
2024/03/24 02:18:51;;;;;;;11.60;3.83;;;2.60;100.00;;;;;;4953500;28;20062;-81
2024/03/24 02:21:17;;;;;;;6.45;3.00;;;2.60;100.00;;;;;;4937453;29;20051;-83
2024/03/24 02:23:43;;;;;;;9.32;3.70;;;2.60;100.00;;;;;;4947043;29;20527;-81
2024/03/24 02:26:09;;;;;;;14.18;3.35;;;2.60;100.00;;;;;;4948004;29;20063;-82
2024/03/24 02:28:35;;;;;;;10.10;4.03;;;2.60;100.00;;;;;;4939753;29;20408;-81
2024/03/24 02:31:02;;;;;;;13.93;4.10;;;2.60;100.00;;;;;;4952720;29;20055;-82
2024/03/24 02:33:28;;;;;;;15.48;4.35;;;2.60;100.00;;;;;;4952386;28;20056;-82
2024/03/24 02:35:54;;;;;;;11.48;3.58;;;2.60;100.00;;;;;;4952769;29;20058;-81
2024/03/24 02:38:20;;;;;;;14.48;4.20;;;2.60;100.00;;;;;;4951969;29;20130;-81
2024/03/24 02:40:49;;;;;;;9.68;3.60;;;2.60;100.00;;;;;;4936885;29;20484;-82
2024/03/24 02:43:15;;;;;;;13.93;4.55;;;2.60;100.00;;;;;;4952183;28;20051;-81
2024/03/24 02:45:41;;;;;;;14.75;4.63;;;2.60;100.00;;;;;;4941086;29;20058;-81
2024/03/24 02:48:07;;;;;;;14.23;4.07;;;2.60;100.00;;;;;;4936856;29;20062;-81
2024/03/24 02:50:34;;;;;;;10.23;3.75;;;2.60;100.00;;;;;;4952873;29;20055;-81
2024/03/24 02:53:04;;;;;;;10.77;3.63;;;2.60;100.00;;;;;;4934367;29;20059;-81
2024/03/24 02:55:30;;;;;;;17.35;4.57;;;2.60;100.00;;;;;;4947493;28;20043;-81
2024/03/24 02:57:55;;;;;;;18.02;4.00;;;2.60;100.00;;;;;;4935839;29;20734;-80
2024/03/24 03:00:22;;;;;;;10.63;3.75;;;2.60;100.00;;;;;;4929304;28;20412;-82
2024/03/24 03:02:48;;;;;;;15.07;4.50;;;2.60;100.00;;;;;;4951133;28;20759;-81
2024/03/24 03:05:14;;;;;;;13.75;4.43;;;2.60;100.00;;;;;;4936003;28;20121;-81
2024/03/24 03:07:40;;;;;;;9.07;4.40;;;2.70;100.00;;;;;;4936001;29;20636;-81
2024/03/24 03:10:08;;;;;;;19.25;4.95;;;2.70;100.00;;;;;;4951236;28;20047;-81
2024/03/24 03:12:37;;;;;;;11.80;4.70;;;2.80;100.00;;;;;;4935626;29;20051;-81
2024/03/24 03:15:04;;;;;;;14.00;4.93;;;2.80;100.00;;;;;;4936925;28;20059;-81
2024/03/24 03:17:31;;;;;;;24.55;5.88;;;2.80;100.00;;;;;;4939151;29;20073;-80
2024/03/24 03:19:57;;;;;;;16.10;4.60;;;2.80;100.00;;;;;;4950139;28;20076;-80
2024/03/24 03:22:23;;;;;;;20.77;4.78;;;2.90;100.00;;;;;;4949985;29;20133;-80
2024/03/24 03:24:49;;;;;;;11.35;5.18;;;2.90;100.00;;;;;;4940406;29;20055;-80
2024/03/24 03:27:15;;;;;;;10.60;4.30;;;2.80;100.00;;;;;;4951152;29;20480;-80
2024/03/24 03:29:41;;;;;;;12.55;5.07;;;2.90;100.00;;;;;;4949561;28;20059;-81
2024/03/24 03:32:07;;;;;;;13.27;4.75;;;2.90;100.00;;;;;;4950406;29;20424;-81
2024/03/24 03:34:33;;;;;;;15.93;6.32;;;2.90;100.00;;;;;;4959304;28;20051;-80
2024/03/24 03:36:59;;;;;;;18.25;5.85;;;2.90;100.00;;;;;;4957482;28;20043;-81
2024/03/24 03:39:25;;;;;;;20.80;5.78;;;2.90;100.00;;;;;;4951541;28;20047;-80
2024/03/24 03:41:52;;;;;;;15.27;4.88;;;3.00;100.00;;;;;;4949485;29;20051;-81
2024/03/24 03:44:18;;;;;;;12.45;6.03;;;2.90;100.00;;;;;;4951542;28;20047;-82
2024/03/24 03:46:44;;;;;;;17.02;5.95;;;2.90;100.00;;;;;;4951639;28;20051;-81
2024/03/24 03:49:16;;;;;;;19.45;5.35;;;2.90;100.00;;;;;;4955156;28;20559;-82
2024/03/24 03:51:44;;;;;;;12.40;5.57;;;3.00;100.00;;;;;;4935421;29;20500;-81
2024/03/24 03:54:11;;;;;;;17.92;6.30;;;3.00;100.00;;;;;;4931957;29;20384;-82
2024/03/24 03:56:38;;;;;;;19.08;5.45;;;3.00;100.00;;;;;;4952929;28;20063;-80
2024/03/24 03:59:05;;;;;;;17.73;6.78;;;2.90;100.00;;;;;;4934584;29;20054;-79
2024/03/24 04:01:31;;;;;;;16.23;5.93;;;3.00;100.00;;;;;;4949406;29;20055;-81
2024/03/24 04:03:59;;;;;;;17.10;6.40;;;2.90;100.00;;;;;;4933254;29;20058;-80
2024/03/24 04:06:26;;;;;;;17.90;6.20;;;2.90;100.00;;;;;;4949779;29;20503;-79
2024/03/24 04:08:52;;;;;;;14.20;5.38;;;2.90;100.00;;;;;;4953839;28;20416;-80
2024/03/24 04:11:18;;;;;;;17.38;5.82;;;2.90;100.00;;;;;;4948780;29;20134;-80
2024/03/24 04:13:43;;;;;;;12.75;5.47;;;2.90;100.00;;;;;;4946659;28;20135;-80
2024/03/24 04:16:09;;;;;;;16.92;7.45;;;2.90;100.00;;;;;;4950200;28;20053;-81
2024/03/24 04:18:36;;;;;;;16.40;6.20;;;2.80;100.00;;;;;;4952575;28;20062;-80
2024/03/24 04:21:04;;;;;;;23.17;6.30;;;2.80;100.00;;;;;;4932895;29;20052;-79
2024/03/24 04:23:30;;;;;;;25.73;6.25;;;2.80;100.00;;;;;;4949534;28;20055;-80
2024/03/24 04:25:56;;;;;;;12.13;5.45;;;2.70;100.00;;;;;;4949821;28;20055;-80
2024/03/24 04:28:22;;;;;;;19.38;6.35;;;2.70;100.00;;;;;;4933944;29;20051;-80
2024/03/24 04:30:48;;;;;;;22.55;7.38;;;2.70;100.00;;;;;;4934176;28;20065;-80
2024/03/24 04:33:14;;;;;;;16.85;7.30;;;2.70;100.00;;;;;;4933154;29;20055;-80
2024/03/24 04:35:40;;;;;;;17.60;6.05;;;2.70;100.00;;;;;;4934205;29;20078;-81
2024/03/24 04:38:06;;;;;;;25.35;7.40;;;2.70;100.00;;;;;;4933655;29;20047;-80
2024/03/24 04:40:32;;;;;;;22.80;6.72;;;2.70;100.00;;;;;;4949412;28;20146;-79
2024/03/24 04:42:58;;;;;;;19.92;7.55;;;2.70;100.00;;;;;;4949206;28;20645;-80
2024/03/24 04:45:24;;;;;;;17.95;6.97;;;2.80;100.00;;;;;;4949457;29;20047;-79
2024/03/24 04:47:51;;;;;;;21.10;8.05;;;2.80;100.00;;;;;;4947696;28;20128;-80
2024/03/24 04:50:16;;;;;;;17.33;8.02;;;2.80;100.00;;;;;;4933302;29;20055;-81
2024/03/24 04:52:42;;;;;;;18.63;7.93;;;2.80;100.00;;;;;;4933870;29;20055;-81
2024/03/24 04:55:08;;;;;;;18.42;6.57;;;2.80;100.00;;;;;;4945789;28;20057;-80
2024/03/24 04:57:34;;;;;;;28.08;8.43;;;2.80;100.00;;;;;;4949036;29;20481;-80
2024/03/24 05:00:00;;;;;;;25.08;8.45;;;2.80;100.00;;;;;;4948624;29;20495;-79
2024/03/24 05:02:26;;;;;;;21.13;7.85;;;2.80;100.00;;;;;;4948718;28;20751;-80
2024/03/24 05:04:51;;;;;;;17.73;8.57;;;2.80;100.00;;;;;;4948408;29;20062;-80
2024/03/24 05:07:17;;;;;;;23.92;8.45;;;2.80;100.00;;;;;;4933974;29;20051;-80
2024/03/24 05:09:43;;;;;;;18.52;8.27;;;2.80;100.00;;;;;;4949786;29;20062;-80
2024/03/24 05:12:09;;;;;;;16.30;7.88;;;2.70;100.00;;;;;;4949841;28;20047;-80
2024/03/24 05:14:35;;;;;;;23.42;9.15;;;2.70;100.00;;;;;;4950309;28;20789;-82
2024/03/24 05:17:02;;;;;;;27.88;9.57;;;2.70;100.00;;;;;;4934588;29;20066;-81
2024/03/24 05:19:28;;;;;;;25.95;8.80;;;2.70;100.00;;;;;;4949966;29;20047;-81
2024/03/24 05:21:54;;;;;;;19.35;9.50;;;2.80;100.00;;;;;;4933715;29;20058;-80
2024/03/24 05:24:20;;;;;;;22.48;10.05;;;2.80;100.00;;;;;;4948160;29;20331;-81
2024/03/24 05:26:46;;;;;;;27.90;9.57;;;2.80;100.00;;;;;;4954384;28;20091;-81
2024/03/24 05:29:12;;;;;;;25.98;10.65;;;2.90;100.00;;;;;;4934762;29;20054;-82
2024/03/24 05:31:44;;;;;;;25.98;11.07;;;2.90;100.00;;;;;;4934315;29;20062;-80
2024/03/24 05:34:10;;;;;;;25.25;11.35;;;3.00;100.00;;;;;;4950337;28;20397;-80
2024/03/24 05:36:37;;;;;;;25.08;9.95;;;3.00;100.00;;;;;;4949317;28;20066;-80
2024/03/24 05:39:03;;;;;;;26.55;11.35;;;3.10;100.00;;;;;;4948717;29;20126;-80
2024/03/24 05:41:31;;;;;;;31.17;11.23;;;3.10;100.00;;;;;;4932543;29;20048;-80
2024/03/24 05:43:56;;;;;;;36.05;11.77;;;3.20;100.00;;;;;;4935039;29;20075;-79
2024/03/24 05:46:22;;;;;;;28.73;11.70;;;3.20;100.00;;;;;;4952695;28;20134;-79
2024/03/24 05:48:49;;;;;;;33.83;12.70;;;3.30;100.00;;;;;;4952241;29;20059;-80
2024/03/24 05:51:14;;;;;;;29.60;12.95;;;3.30;100.00;;;;;;4950951;29;20063;-81
2024/03/24 05:53:40;;;;;;;30.40;12.23;;;3.30;100.00;;;;;;4951797;29;20504;-80
2024/03/24 05:56:07;;;;;;;31.20;12.68;;;3.40;100.00;;;;;;4954053;28;20134;-80
2024/03/24 05:58:34;;;;;;;35.85;13.20;;;3.40;100.00;;;;;;4936490;29;20059;-80
2024/03/24 06:01:03;;;;;;;29.88;12.32;;;3.50;100.00;;;;;;4951463;28;20492;-80
2024/03/24 06:03:29;;;;;;;37.38;13.65;;;3.50;100.00;;;;;;4936281;29;20055;-80
2024/03/24 06:05:56;;;;;;;31.27;13.05;;;3.60;100.00;;;;;;4935454;29;20562;-80
2024/03/24 06:08:25;;;;;;;27.92;12.73;;;3.60;100.00;;;;;;4936205;29;20051;-80
2024/03/24 06:10:51;;;;;;;30.00;12.25;;;3.60;100.00;;;;;;4936088;29;20731;-80
2024/03/24 06:13:17;;;;;;;26.65;12.43;;;3.60;100.00;;;;;;4952626;29;20098;-81
2024/03/24 06:15:43;;;;;;;32.28;12.95;;;3.60;100.00;;;;;;4935860;29;20504;-81
2024/03/24 06:18:09;;;;;;;42.40;14.35;;;3.70;100.00;;;;;;4934960;29;20062;-80
2024/03/24 06:20:39;;;;;;;34.63;13.30;;;3.70;100.00;;;;;;4935351;29;20393;-80
2024/03/24 06:23:06;;;;;;;29.92;13.20;;;3.80;100.00;;;;;;4950423;29;20115;-80
2024/03/24 06:25:33;;;;;;;29.85;12.38;;;3.80;100.00;;;;;;4934256;29;20047;-76
2024/03/24 06:28:01;;;;;;;28.65;13.43;;;3.80;100.00;;;;;;4949141;29;20053;-78
2024/03/24 06:30:28;;;;;;;33.20;13.40;;;3.90;100.00;;;;;;4948983;28;20051;-77
2024/03/24 06:32:54;;;;;;;31.38;12.82;;;4.00;100.00;;;;;;4949296;28;20531;-76
2024/03/24 06:35:20;;;;;;;32.70;13.63;;;4.00;100.00;;;;;;4947156;28;20055;-80
2024/03/24 06:37:46;;;;;;;29.80;12.85;;;4.10;100.00;;;;;;4945391;29;20055;-77
2024/03/24 06:40:12;;;;;;;30.63;12.60;;;4.10;100.00;;;;;;4949259;29;20055;-82
2024/03/24 06:42:44;;;;;;;39.95;13.70;;;4.20;100.00;;;;;;4948770;28;20385;-76
2024/03/24 06:45:13;;;;;;;34.03;12.70;;;4.20;100.00;;;;;;4945979;28;20078;-77
2024/03/24 06:47:39;;;;;;;27.20;13.35;;;4.20;100.00;;;;;;4930306;29;20071;-76
2024/03/24 06:50:06;;;;;;;28.80;13.48;;;4.30;100.00;;;;;;4946052;28;20397;-76
2024/03/24 06:52:35;;;;;;;28.00;11.23;;;4.30;100.00;;;;;;4946780;29;20055;-76
2024/03/24 06:55:01;;;;;;;28.30;13.25;;;4.30;100.00;;;;;;4946166;28;20047;-74
2024/03/24 06:57:28;;;;;;;32.35;12.48;;;4.30;100.00;;;;;;4931849;28;20555;-79
2024/03/24 06:59:55;;;;;;;34.60;13.50;;;4.30;100.00;;;;;;4931547;29;20066;-76
2024/03/24 07:02:20;;;;;;;32.08;13.43;;;4.30;100.00;;;;;;4946399;29;20062;-75
2024/03/24 07:04:47;;;;;;;34.00;14.57;;;4.30;100.00;;;;;;4931207;29;20075;-75
2024/03/24 07:07:12;;;;;;;28.77;13.27;;;4.30;100.00;;;;;;4931569;29;20059;-77
2024/03/24 07:09:38;;;;;;;33.42;13.90;;;4.30;100.00;;;;;;4931309;29;20605;-76
2024/03/24 07:12:05;;;;;;;28.13;12.85;;;4.30;100.00;;;;;;4949317;28;20679;-76
2024/03/24 07:14:31;;;;;;;32.55;12.88;;;4.30;100.00;;;;;;4944751;29;20047;-75
2024/03/24 07:16:57;;;;;;;21.23;11.20;;;4.40;100.00;;;;;;4946119;29;20047;-76
2024/03/24 07:19:22;;;;;;;25.30;11.68;;;4.30;100.00;;;;;;4930815;29;20082;-76
2024/03/24 07:21:48;;;;;;;33.00;13.18;;;4.40;100.00;;;;;;4930320;29;20047;-76
2024/03/24 07:24:14;;;;;;;26.88;13.13;;;4.30;100.00;;;;;;4945633;29;20051;-75
2024/03/24 07:26:40;;;;;;;27.08;11.75;;;4.40;100.00;;;;;;4930226;29;20063;-75
2024/03/24 07:29:06;;;;;;;26.63;13.40;;;4.40;100.00;;;;;;4929561;29;20059;-76
2024/03/24 07:31:32;;;;;;;25.88;13.43;;;4.40;100.00;;;;;;4930313;29;20051;-73
2024/03/24 07:33:58;;;;;;;30.63;12.27;;;4.40;100.00;;;;;;4930240;29;20404;-76
2024/03/24 07:36:23;;;;;;;29.73;13.48;;;4.40;100.00;;;;;;4946392;29;20105;-75
2024/03/24 07:38:49;;;;;;;31.95;13.27;;;4.50;100.00;;;;;;4930758;29;20055;-75
2024/03/24 07:41:17;;;;;;;36.70;13.50;;;4.40;100.00;;;;;;4946384;29;20058;-74
2024/03/24 07:43:43;;;;;;;32.08;12.95;;;4.50;100.00;;;;;;4930499;29;20115;-76
2024/03/24 07:46:10;;;;;;;32.33;13.45;;;4.50;100.00;;;;;;4945567;28;20051;-76
2024/03/24 07:48:36;;;;;;;27.75;12.98;;;4.50;100.00;;;;;;4944311;28;20051;-76
2024/03/24 07:51:01;;;;;;;31.40;13.40;;;4.60;100.00;;;;;;4945345;28;20066;-76
2024/03/24 07:53:27;;;;;;;30.88;13.13;;;4.60;100.00;;;;;;4943857;28;20142;-76
2024/03/24 07:55:53;;;;;;;28.85;12.40;;;4.60;100.00;;;;;;4945285;28;20082;-75
2024/03/24 07:58:19;;;;;;;27.10;13.18;;;4.60;100.00;;;;;;4944656;28;20047;-74
2024/03/24 08:00:45;;;;;;;26.70;12.50;;;4.60;100.00;;;;;;4944992;28;20106;-75
2024/03/24 08:03:11;;;;;;;25.25;11.57;;;4.70;100.00;;;;;;4944070;28;20051;-78
2024/03/24 08:05:37;;;;;;;25.15;11.18;;;4.80;100.00;;;;;;4929626;28;20075;-75
2024/03/24 08:08:03;;;;;;;22.63;10.98;;;4.70;100.00;;;;;;4944866;29;20110;-76
2024/03/24 08:10:29;;;;;;;25.15;12.63;;;4.80;100.00;;;;;;4945857;28;20047;-78
2024/03/24 08:12:54;;;;;;;24.77;10.77;;;4.80;100.00;;;;;;4944441;28;20133;-77
2024/03/24 08:15:20;;;;;;;26.52;11.43;;;4.90;100.00;;;;;;4928983;28;20484;-75
2024/03/24 08:17:46;;;;;;;30.98;11.52;;;4.90;100.00;;;;;;4944127;28;21084;-75
2024/03/24 08:20:12;;;;;;;23.38;11.32;;;4.90;100.00;;;;;;4929569;29;20059;-74
2024/03/24 08:22:38;;;;;;;27.15;10.88;;;5.00;100.00;;;;;;4944383;28;20137;-73
2024/03/24 08:25:04;;;;;;;26.38;11.48;;;5.00;100.00;;;;;;4946000;28;20066;-73
2024/03/24 08:27:30;;;;;;;25.48;11.82;;;5.00;100.00;;;;;;4930354;29;20120;-73
2024/03/24 08:29:58;;;;;;;21.15;10.52;;;5.00;100.00;;;;;;4945802;29;20496;-75
2024/03/24 08:32:24;;;;;;;27.80;10.73;;;5.00;100.00;;;;;;4929245;29;20404;-73
2024/03/24 08:34:51;;;;;;;21.25;9.95;;;5.00;100.00;;;;;;4929501;29;20131;-76
2024/03/24 08:37:18;;;;;;;24.27;11.18;;;5.10;100.00;;;;;;4946542;29;20109;-74
2024/03/24 08:39:43;;;;;;;26.33;11.15;;;5.10;100.00;;;;;;4930015;29;20058;-77
2024/03/24 08:42:09;;;;;;;19.77;9.68;;;5.10;100.00;;;;;;4944408;29;20081;-77
2024/03/24 08:44:35;;;;;;;25.25;11.70;;;5.10;100.00;;;;;;4930642;29;20055;-77
2024/03/24 08:47:01;;;;;;;46.38;15.80;;;5.10;100.00;;;;;;4929224;29;20061;-77
2024/03/24 08:49:27;;;;;;;30.13;11.10;;;5.20;100.00;;;;;;4944093;29;20122;-77
2024/03/24 08:51:53;;;;;;;24.05;10.10;;;5.20;100.00;;;;;;4944632;28;20058;-76
2024/03/24 08:54:19;;;;;;;28.55;12.75;;;5.30;100.00;;;;;;4930257;29;20051;-76
2024/03/24 08:56:45;;;;;;;26.20;10.35;;;5.30;100.00;;;;;;4946361;29;20062;-77
2024/03/24 08:59:11;;;;;;;20.02;10.00;;;5.30;100.00;;;;;;4929019;29;20079;-77
2024/03/24 09:01:36;;;;;;;20.48;10.25;;;5.30;100.00;;;;;;4927746;29;20138;-77
2024/03/24 09:04:02;;;;;;;22.05;9.13;;;5.30;100.00;;;;;;4945782;29;20137;-76
2024/03/24 09:06:28;;;;;;;19.20;8.95;;;5.40;100.00;;;;;;4944939;29;20134;-77
2024/03/24 09:08:54;;;;;;;21.73;9.63;;;5.40;100.00;;;;;;4929421;29;20084;-76
2024/03/24 09:11:20;;;;;;;19.33;8.95;;;5.40;100.00;;;;;;4946220;29;20055;-76
2024/03/24 09:13:46;;;;;;;17.25;8.90;;;5.40;100.00;;;;;;4945429;29;20051;-76
2024/03/24 09:16:12;;;;;;;22.10;9.27;;;5.40;100.00;;;;;;4930870;29;20686;-77
2024/03/24 09:18:38;;;;;;;22.15;9.57;;;5.40;100.00;;;;;;4931822;29;21411;-76
2024/03/24 09:21:05;;;;;;;16.88;8.52;;;5.50;100.00;;;;;;4934439;29;20055;-77
2024/03/24 09:23:32;;;;;;;21.65;8.60;;;5.50;100.00;;;;;;4946849;28;20828;-76
2024/03/24 09:25:58;;;;;;;16.98;8.13;;;5.50;100.00;;;;;;4949526;29;20051;-76
2024/03/24 09:28:24;;;;;;;25.48;11.43;;;5.50;100.00;;;;;;4952231;28;20400;-76
2024/03/24 09:31:01;;;;;;;23.48;10.77;;;5.50;100.00;;;;;;4932994;29;20055;-76
2024/03/24 09:33:27;;;;;;;20.25;9.52;;;5.60;100.00;;;;;;4927187;29;20103;-77
2024/03/24 09:35:58;;;;;;;18.45;8.40;;;5.60;100.00;;;;;;4929702;29;20751;-76
2024/03/24 09:38:24;;;;;;;19.10;8.35;;;5.70;100.00;;;;;;4932115;29;20051;-76
2024/03/24 09:40:51;;;;;;;26.25;9.73;;;5.80;100.00;;;;;;4932248;29;20126;-76
2024/03/24 09:43:20;;;;;;;20.75;8.68;;;5.70;100.00;;;;;;4948038;28;20062;-77
2024/03/24 09:45:47;;;;;;;21.48;9.07;;;5.70;100.00;;;;;;4948103;29;20070;-77
2024/03/24 09:48:14;;;;;;;25.25;8.40;;;5.70;100.00;;;;;;4947631;28;20051;-76
2024/03/24 09:50:41;;;;;;;21.45;9.70;;;5.60;100.00;;;;;;4932929;29;20070;-77
2024/03/24 09:53:10;;;;;;;14.48;7.90;;;5.60;100.00;;;;;;4948172;29;20058;-76
2024/03/24 09:55:37;;;;;;;17.48;8.85;;;5.60;100.00;;;;;;4947918;28;20047;-77
2024/03/24 09:58:04;;;;;;;15.43;7.30;;;5.60;100.00;;;;;;4932520;29;20059;-76
2024/03/24 10:00:30;;;;;;;17.38;7.90;;;5.50;100.00;;;;;;4932832;29;20058;-77
2024/03/24 10:02:56;;;;;;;12.52;6.63;;;5.50;100.00;;;;;;4947642;29;20090;-76
2024/03/24 10:05:22;;;;;;;20.02;7.78;;;5.40;100.00;;;;;;4932643;29;20050;-77
2024/03/24 10:07:49;;;;;;;138.70;18.92;;;5.50;100.00;;;;;;4932563;29;20529;-77
2024/03/24 10:10:15;;;;;;;17.38;7.00;;;5.50;100.00;;;;;;4949179;28;20102;-77
2024/03/24 10:13:03;;;;;;;19.20;7.47;;;5.50;100.00;;;;;;4946721;29;20051;-76
2024/03/24 10:15:29;;;;;;;20.23;7.07;;;5.50;100.00;;;;;;4931841;29;20051;-77
2024/03/24 10:18:03;;;;;;;17.27;7.40;;;5.50;100.00;;;;;;4947745;29;20055;-76
2024/03/24 10:20:30;;;;;;;15.32;7.00;;;5.50;100.00;;;;;;4948363;28;20047;-79
2024/03/24 10:22:57;;;;;;;16.20;7.53;;;5.50;100.00;;;;;;4947227;28;20062;-76
2024/03/24 10:25:24;;;;;;;12.25;6.90;;;5.50;100.00;;;;;;4948007;29;20047;-76
2024/03/24 10:27:51;;;;;;;12.63;6.45;;;5.50;100.00;;;;;;4931723;29;20055;-77
2024/03/24 10:30:18;;;;;;;19.35;8.63;;;5.60;100.00;;;;;;4946939;28;20062;-77
2024/03/24 10:32:44;;;;;;;18.02;7.30;;;5.60;100.00;;;;;;4943392;28;20055;-78
2024/03/24 10:35:10;;;;;;;18.75;7.75;;;5.60;100.00;;;;;;4951671;28;20047;-75
2024/03/24 10:37:37;;;;;;;16.75;7.57;;;5.70;100.00;;;;;;4931068;29;20585;-76
2024/03/24 10:40:13;;;;;;;19.85;7.60;;;5.80;100.00;;;;;;4946216;28;20047;-80
2024/03/24 10:42:44;;;;;;;13.85;7.13;;;6.00;100.00;;;;;;4934412;28;20055;-80
2024/03/24 10:45:14;;;;;;;16.40;7.43;;;6.20;100.00;;;;;;4944448;29;20051;-80
2024/03/24 10:47:41;;;;;;;21.90;7.47;;;6.50;100.00;;;;;;4932877;28;20066;-79
2024/03/24 10:50:12;;;;;;;12.77;7.53;;;6.80;100.00;;;;;;4932244;29;20075;-79
2024/03/24 10:52:42;;;;;;;16.00;7.20;;;6.90;100.00;;;;;;4936107;28;20058;-81
2024/03/24 10:55:09;;;;;;;15.02;6.97;;;6.80;100.00;;;;;;4949432;28;20171;-81
2024/03/24 10:57:39;;;;;;;11.23;6.25;;;6.90;100.00;;;;;;4935750;28;20047;-78
2024/03/24 11:00:06;;;;;;;14.30;6.68;;;7.10;100.00;;;;;;4949921;28;20051;-75
2024/03/24 11:02:32;;;;;;;15.40;6.47;;;7.20;100.00;;;;;;4930710;29;20134;-76
2024/03/24 11:05:01;;;;;;;14.57;5.93;;;7.30;100.00;;;;;;4947773;29;20063;-77
2024/03/24 11:07:28;;;;;;;13.18;6.25;;;7.30;100.00;;;;;;4947732;29;20126;-75
2024/03/24 11:09:55;;;;;;;12.35;6.13;;;7.30;100.00;;;;;;4931604;29;20062;-73
2024/03/24 11:12:22;;;;;;;14.40;5.82;;;7.50;100.00;;;;;;4928111;29;20176;-74
2024/03/24 11:14:48;;;;;;;12.30;6.82;;;7.60;100.00;;;;;;4942760;29;20047;-75
2024/03/24 11:17:15;;;;;;;10.60;5.88;;;7.90;100.00;;;;;;4938127;29;20047;-72
2024/03/24 11:19:50;;;;;;;14.00;6.13;;;8.30;100.00;;;;;;4941781;29;20067;-72
2024/03/24 11:22:36;;;;;;;14.80;6.72;;;8.80;100.00;;;;;;4931454;29;20114;-73
2024/03/24 11:25:06;;;;;;;9.75;5.35;;;9.30;100.00;;;;;;4944698;28;20055;-73
2024/03/24 11:27:41;;;;;;;11.43;6.00;;;9.40;100.00;;;;;;4930066;29;20051;-73
2024/03/24 11:30:15;;;;;;;14.43;6.22;;;9.10;100.00;;;;;;4945799;29;20062;-73
2024/03/24 11:33:00;;;;;;;8.80;4.65;;;9.60;100.00;;;;;;4929112;29;20059;-74
2024/03/24 11:35:30;;;;;;;7.80;4.72;;;9.30;100.00;;;;;;4940897;28;20062;-73
2024/03/24 11:37:59;;;;;;;9.43;5.40;;;9.20;100.00;;;;;;4928722;28;20051;-74
2024/03/24 11:40:27;;;;;;;11.32;5.32;;;9.10;100.00;;;;;;4946249;28;20059;-74
2024/03/24 11:42:55;;;;;;;14.73;6.75;;;9.10;100.00;;;;;;4945336;28;20047;-74
2024/03/24 11:45:32;;;;;;;10.85;5.80;;;9.40;100.00;;;;;;4945709;29;20077;-75
2024/03/24 11:48:17;;;;;;;13.15;5.75;;;9.40;100.00;;;;;;4946936;29;20205;-82
2024/03/24 11:50:43;;;;;;;9.25;4.93;;;9.50;100.00;;;;;;4946331;28;20059;-75
2024/03/24 11:53:11;;;;;;;9.02;5.50;;;10.30;100.00;;;;;;4945559;29;20062;-75
2024/03/24 11:55:39;;;;;;;8.00;5.20;;;10.20;100.00;;;;;;4930641;28;20070;-75
2024/03/24 11:58:06;;;;;;;9.60;4.50;;;10.00;100.00;;;;;;4930080;29;20081;-75
2024/03/24 12:00:32;;;;;;;12.77;5.15;;;9.70;100.00;;;;;;4946582;28;20051;-74
2024/03/24 12:02:59;;;;;;;9.48;4.90;;;9.40;100.00;;;;;;4944749;29;20187;-76
2024/03/24 12:05:25;;;;;;;9.40;4.65;;;9.10;100.00;;;;;;4929330;29;20497;-77
2024/03/24 12:07:52;;;;;;;10.98;4.78;;;9.10;100.00;;;;;;4929570;29;20063;-78
2024/03/24 12:10:18;;;;;;;9.85;4.53;;;9.00;100.00;;;;;;4930093;29;20548;-76
2024/03/24 12:12:44;;;;;;;10.82;4.03;;;9.00;100.00;;;;;;4929120;29;20055;-75
2024/03/24 12:15:10;;;;;;;9.50;4.45;;;8.80;100.00;;;;;;4943740;28;20051;-75
2024/03/24 12:17:37;;;;;;;11.05;4.30;;;9.10;100.00;;;;;;4944384;29;20500;-76
2024/03/24 12:20:04;;;;;;;11.40;4.70;;;9.10;100.00;;;;;;4929112;29;20051;-75
2024/03/24 12:22:32;;;;;;;6.55;3.97;;;9.00;100.00;;;;;;4927677;29;20412;-75
2024/03/24 12:24:58;;;;;;;8.43;4.20;;;8.80;100.00;;;;;;4929158;28;20066;-75
2024/03/24 12:27:24;;;;;;;10.20;4.53;;;8.60;100.00;;;;;;4927886;29;20505;-75
2024/03/24 12:29:55;;;;;;;13.07;4.82;;;8.60;100.00;;;;;;4944680;28;20047;-75
2024/03/24 12:32:25;;;;;;;11.85;4.68;;;8.40;100.00;;;;;;4945244;28;20059;-75
2024/03/24 12:34:51;;;;;;;11.40;4.47;;;8.20;100.00;;;;;;4923779;29;20048;-76